sensor_id;sensor_type;location;lat;lon;timestamp;P1;durP1;ratioP1;P2;durP2;ratioP2
33830;SDS011;20137;48.834;8.732;2023-04-24T00:00:04;4.80;;;0.93;;
33830;SDS011;20137;48.834;8.732;2023-04-24T00:02:31;4.18;;;0.80;;
33830;SDS011;20137;48.834;8.732;2023-04-24T00:04:57;1.95;;;1.08;;
33830;SDS011;20137;48.834;8.732;2023-04-24T00:07:27;2.03;;;0.82;;
33830;SDS011;20137;48.834;8.732;2023-04-24T00:09:53;3.60;;;0.80;;
33830;SDS011;20137;48.834;8.732;2023-04-24T00:12:19;1.25;;;0.80;;
33830;SDS011;20137;48.834;8.732;2023-04-24T00:14:45;1.83;;;0.90;;
33830;SDS011;20137;48.834;8.732;2023-04-24T00:17:11;3.78;;;1.10;;
33830;SDS011;20137;48.834;8.732;2023-04-24T00:19:36;4.68;;;0.90;;
33830;SDS011;20137;48.834;8.732;2023-04-24T00:22:02;1.83;;;0.82;;
33830;SDS011;20137;48.834;8.732;2023-04-24T00:24:28;1.98;;;0.80;;
33830;SDS011;20137;48.834;8.732;2023-04-24T00:26:54;4.63;;;0.85;;
33830;SDS011;20137;48.834;8.732;2023-04-24T00:29:19;2.00;;;0.88;;
33830;SDS011;20137;48.834;8.732;2023-04-24T00:31:45;2.95;;;0.90;;
33830;SDS011;20137;48.834;8.732;2023-04-24T00:34:11;2.15;;;0.70;;
33830;SDS011;20137;48.834;8.732;2023-04-24T00:36:37;3.13;;;1.38;;
33830;SDS011;20137;48.834;8.732;2023-04-24T00:39:03;3.25;;;1.10;;
33830;SDS011;20137;48.834;8.732;2023-04-24T00:41:28;1.73;;;0.80;;
33830;SDS011;20137;48.834;8.732;2023-04-24T00:43:55;2.10;;;0.70;;
33830;SDS011;20137;48.834;8.732;2023-04-24T00:46:20;3.00;;;0.90;;
33830;SDS011;20137;48.834;8.732;2023-04-24T00:48:47;2.45;;;0.95;;
33830;SDS011;20137;48.834;8.732;2023-04-24T00:51:12;1.27;;;0.75;;
33830;SDS011;20137;48.834;8.732;2023-04-24T00:53:38;3.03;;;0.90;;
33830;SDS011;20137;48.834;8.732;2023-04-24T00:56:04;3.30;;;0.85;;
33830;SDS011;20137;48.834;8.732;2023-04-24T00:58:30;4.40;;;0.98;;
33830;SDS011;20137;48.834;8.732;2023-04-24T01:00:57;2.25;;;0.80;;
33830;SDS011;20137;48.834;8.732;2023-04-24T01:03:24;1.65;;;0.90;;
33830;SDS011;20137;48.834;8.732;2023-04-24T01:05:53;1.80;;;0.85;;
33830;SDS011;20137;48.834;8.732;2023-04-24T01:08:20;2.88;;;1.00;;
33830;SDS011;20137;48.834;8.732;2023-04-24T01:10:48;2.13;;;0.82;;
33830;SDS011;20137;48.834;8.732;2023-04-24T01:13:16;2.35;;;1.00;;
33830;SDS011;20137;48.834;8.732;2023-04-24T01:15:43;2.60;;;0.90;;
33830;SDS011;20137;48.834;8.732;2023-04-24T01:18:09;4.55;;;1.27;;
33830;SDS011;20137;48.834;8.732;2023-04-24T01:20:35;2.33;;;0.90;;
33830;SDS011;20137;48.834;8.732;2023-04-24T01:23:05;2.35;;;0.70;;
33830;SDS011;20137;48.834;8.732;2023-04-24T01:25:31;4.78;;;1.40;;
33830;SDS011;20137;48.834;8.732;2023-04-24T01:27:57;3.05;;;0.77;;
33830;SDS011;20137;48.834;8.732;2023-04-24T01:30:24;4.70;;;0.93;;
33830;SDS011;20137;48.834;8.732;2023-04-24T01:32:50;3.03;;;1.23;;
33830;SDS011;20137;48.834;8.732;2023-04-24T01:35:17;3.70;;;0.80;;
33830;SDS011;20137;48.834;8.732;2023-04-24T01:37:43;3.60;;;0.88;;
33830;SDS011;20137;48.834;8.732;2023-04-24T01:40:09;2.75;;;0.90;;
33830;SDS011;20137;48.834;8.732;2023-04-24T01:42:35;1.95;;;0.85;;
33830;SDS011;20137;48.834;8.732;2023-04-24T01:45:01;2.90;;;0.80;;
33830;SDS011;20137;48.834;8.732;2023-04-24T01:47:29;3.45;;;0.80;;
33830;SDS011;20137;48.834;8.732;2023-04-24T01:49:55;2.70;;;0.60;;
33830;SDS011;20137;48.834;8.732;2023-04-24T01:52:21;4.53;;;0.90;;
33830;SDS011;20137;48.834;8.732;2023-04-24T01:54:47;1.90;;;0.95;;
33830;SDS011;20137;48.834;8.732;2023-04-24T01:57:13;2.08;;;0.80;;
33830;SDS011;20137;48.834;8.732;2023-04-24T01:59:40;1.52;;;0.82;;
33830;SDS011;20137;48.834;8.732;2023-04-24T02:02:06;2.90;;;0.93;;
33830;SDS011;20137;48.834;8.732;2023-04-24T02:04:31;1.67;;;0.80;;
33830;SDS011;20137;48.834;8.732;2023-04-24T02:06:57;2.30;;;0.77;;
33830;SDS011;20137;48.834;8.732;2023-04-24T02:09:23;1.45;;;0.95;;
33830;SDS011;20137;48.834;8.732;2023-04-24T02:11:48;2.25;;;1.13;;
33830;SDS011;20137;48.834;8.732;2023-04-24T02:14:14;1.58;;;0.80;;
33830;SDS011;20137;48.834;8.732;2023-04-24T02:16:39;1.65;;;0.90;;
33830;SDS011;20137;48.834;8.732;2023-04-24T02:19:05;3.60;;;1.00;;
33830;SDS011;20137;48.834;8.732;2023-04-24T02:21:31;4.07;;;1.00;;
33830;SDS011;20137;48.834;8.732;2023-04-24T02:23:57;2.83;;;1.00;;
33830;SDS011;20137;48.834;8.732;2023-04-24T02:26:23;2.63;;;0.90;;
33830;SDS011;20137;48.834;8.732;2023-04-24T02:28:49;2.67;;;0.98;;
33830;SDS011;20137;48.834;8.732;2023-04-24T02:31:15;2.70;;;0.88;;
33830;SDS011;20137;48.834;8.732;2023-04-24T02:33:42;1.67;;;0.82;;
33830;SDS011;20137;48.834;8.732;2023-04-24T02:36:08;2.78;;;0.80;;
33830;SDS011;20137;48.834;8.732;2023-04-24T02:38:33;2.13;;;0.95;;
33830;SDS011;20137;48.834;8.732;2023-04-24T02:40:59;1.95;;;0.88;;
33830;SDS011;20137;48.834;8.732;2023-04-24T02:43:25;4.03;;;0.82;;
33830;SDS011;20137;48.834;8.732;2023-04-24T02:45:51;1.65;;;0.80;;
33830;SDS011;20137;48.834;8.732;2023-04-24T02:48:17;1.40;;;0.90;;
33830;SDS011;20137;48.834;8.732;2023-04-24T02:50:43;1.42;;;0.90;;
33830;SDS011;20137;48.834;8.732;2023-04-24T02:53:09;4.40;;;1.05;;
33830;SDS011;20137;48.834;8.732;2023-04-24T02:55:35;1.58;;;1.10;;
33830;SDS011;20137;48.834;8.732;2023-04-24T02:58:01;2.67;;;1.25;;
33830;SDS011;20137;48.834;8.732;2023-04-24T03:00:26;2.28;;;0.95;;
33830;SDS011;20137;48.834;8.732;2023-04-24T03:02:52;3.65;;;1.10;;
33830;SDS011;20137;48.834;8.732;2023-04-24T03:05:18;3.80;;;1.30;;
33830;SDS011;20137;48.834;8.732;2023-04-24T03:07:44;1.70;;;1.10;;
33830;SDS011;20137;48.834;8.732;2023-04-24T03:10:10;3.97;;;1.35;;
33830;SDS011;20137;48.834;8.732;2023-04-24T03:12:36;3.10;;;1.40;;
33830;SDS011;20137;48.834;8.732;2023-04-24T03:15:02;3.47;;;1.08;;
33830;SDS011;20137;48.834;8.732;2023-04-24T03:17:27;2.47;;;1.30;;
33830;SDS011;20137;48.834;8.732;2023-04-24T03:19:53;2.58;;;1.15;;
33830;SDS011;20137;48.834;8.732;2023-04-24T03:22:19;2.35;;;1.30;;
33830;SDS011;20137;48.834;8.732;2023-04-24T03:24:45;2.70;;;1.70;;
33830;SDS011;20137;48.834;8.732;2023-04-24T03:27:10;2.42;;;1.10;;
33830;SDS011;20137;48.834;8.732;2023-04-24T03:29:36;2.17;;;1.10;;
33830;SDS011;20137;48.834;8.732;2023-04-24T03:32:01;2.22;;;1.20;;
33830;SDS011;20137;48.834;8.732;2023-04-24T03:34:27;3.10;;;1.30;;
33830;SDS011;20137;48.834;8.732;2023-04-24T03:36:53;3.10;;;1.10;;
33830;SDS011;20137;48.834;8.732;2023-04-24T03:39:18;2.97;;;1.27;;
33830;SDS011;20137;48.834;8.732;2023-04-24T03:41:44;3.33;;;1.85;;
33830;SDS011;20137;48.834;8.732;2023-04-24T03:44:10;2.78;;;1.20;;
33830;SDS011;20137;48.834;8.732;2023-04-24T03:46:36;4.20;;;1.38;;
33830;SDS011;20137;48.834;8.732;2023-04-24T03:49:01;2.42;;;1.25;;
33830;SDS011;20137;48.834;8.732;2023-04-24T03:51:27;2.00;;;1.02;;
33830;SDS011;20137;48.834;8.732;2023-04-24T03:53:55;2.78;;;1.23;;
33830;SDS011;20137;48.834;8.732;2023-04-24T03:56:20;3.28;;;1.50;;
33830;SDS011;20137;48.834;8.732;2023-04-24T03:58:46;5.28;;;1.40;;
33830;SDS011;20137;48.834;8.732;2023-04-24T04:01:12;2.40;;;1.40;;
33830;SDS011;20137;48.834;8.732;2023-04-24T04:03:38;7.35;;;1.30;;
33830;SDS011;20137;48.834;8.732;2023-04-24T04:06:03;3.83;;;1.40;;
33830;SDS011;20137;48.834;8.732;2023-04-24T04:08:29;2.60;;;1.20;;
33830;SDS011;20137;48.834;8.732;2023-04-24T04:10:55;1.58;;;1.17;;
33830;SDS011;20137;48.834;8.732;2023-04-24T04:13:21;1.50;;;1.10;;
33830;SDS011;20137;48.834;8.732;2023-04-24T04:15:46;2.47;;;1.20;;
33830;SDS011;20137;48.834;8.732;2023-04-24T04:18:12;1.60;;;1.10;;
33830;SDS011;20137;48.834;8.732;2023-04-24T04:20:37;3.25;;;1.70;;
33830;SDS011;20137;48.834;8.732;2023-04-24T04:23:03;3.13;;;1.50;;
33830;SDS011;20137;48.834;8.732;2023-04-24T04:25:29;3.97;;;1.50;;
33830;SDS011;20137;48.834;8.732;2023-04-24T04:27:54;2.38;;;1.45;;
33830;SDS011;20137;48.834;8.732;2023-04-24T04:30:20;4.78;;;1.67;;
33830;SDS011;20137;48.834;8.732;2023-04-24T04:32:46;5.28;;;1.55;;
33830;SDS011;20137;48.834;8.732;2023-04-24T04:35:12;1.98;;;1.42;;
33830;SDS011;20137;48.834;8.732;2023-04-24T04:37:37;2.20;;;1.67;;
33830;SDS011;20137;48.834;8.732;2023-04-24T04:40:03;4.28;;;1.90;;
33830;SDS011;20137;48.834;8.732;2023-04-24T04:42:31;3.40;;;1.90;;
33830;SDS011;20137;48.834;8.732;2023-04-24T04:44:59;3.47;;;2.22;;
33830;SDS011;20137;48.834;8.732;2023-04-24T04:47:25;5.30;;;2.38;;
33830;SDS011;20137;48.834;8.732;2023-04-24T04:49:53;3.22;;;2.28;;
33830;SDS011;20137;48.834;8.732;2023-04-24T04:52:19;2.60;;;2.10;;
33830;SDS011;20137;48.834;8.732;2023-04-24T04:54:49;3.20;;;2.42;;
33830;SDS011;20137;48.834;8.732;2023-04-24T04:57:15;3.38;;;2.30;;
33830;SDS011;20137;48.834;8.732;2023-04-24T04:59:41;5.05;;;2.90;;
33830;SDS011;20137;48.834;8.732;2023-04-24T05:02:07;3.15;;;2.28;;
33830;SDS011;20137;48.834;8.732;2023-04-24T05:04:32;4.30;;;2.40;;
33830;SDS011;20137;48.834;8.732;2023-04-24T05:06:58;4.35;;;2.53;;
33830;SDS011;20137;48.834;8.732;2023-04-24T05:09:24;3.78;;;2.53;;
33830;SDS011;20137;48.834;8.732;2023-04-24T05:11:52;7.28;;;3.05;;
33830;SDS011;20137;48.834;8.732;2023-04-24T05:14:18;4.90;;;2.53;;
33830;SDS011;20137;48.834;8.732;2023-04-24T05:16:44;6.00;;;3.20;;
33830;SDS011;20137;48.834;8.732;2023-04-24T05:19:10;4.13;;;3.30;;
33830;SDS011;20137;48.834;8.732;2023-04-24T05:21:40;6.00;;;2.80;;
33830;SDS011;20137;48.834;8.732;2023-04-24T05:24:06;3.88;;;2.97;;
33830;SDS011;20137;48.834;8.732;2023-04-24T05:26:31;3.65;;;2.45;;
33830;SDS011;20137;48.834;8.732;2023-04-24T05:28:57;5.90;;;3.03;;
33830;SDS011;20137;48.834;8.732;2023-04-24T05:31:24;6.13;;;3.03;;
33830;SDS011;20137;48.834;8.732;2023-04-24T05:33:50;4.95;;;2.95;;
33830;SDS011;20137;48.834;8.732;2023-04-24T05:36:16;3.83;;;2.80;;
33830;SDS011;20137;48.834;8.732;2023-04-24T05:38:41;5.43;;;2.40;;
33830;SDS011;20137;48.834;8.732;2023-04-24T05:41:07;4.32;;;2.30;;
33830;SDS011;20137;48.834;8.732;2023-04-24T05:43:33;4.97;;;2.15;;
33830;SDS011;20137;48.834;8.732;2023-04-24T05:45:58;4.68;;;2.50;;
33830;SDS011;20137;48.834;8.732;2023-04-24T05:48:24;2.13;;;1.88;;
33830;SDS011;20137;48.834;8.732;2023-04-24T05:50:50;5.00;;;1.90;;
33830;SDS011;20137;48.834;8.732;2023-04-24T05:53:17;2.72;;;2.10;;
33830;SDS011;20137;48.834;8.732;2023-04-24T05:55:43;2.83;;;2.10;;
33830;SDS011;20137;48.834;8.732;2023-04-24T05:58:09;3.00;;;2.03;;
33830;SDS011;20137;48.834;8.732;2023-04-24T06:00:34;4.10;;;2.10;;
33830;SDS011;20137;48.834;8.732;2023-04-24T06:03:00;5.53;;;2.33;;
33830;SDS011;20137;48.834;8.732;2023-04-24T06:05:28;2.63;;;2.10;;
33830;SDS011;20137;48.834;8.732;2023-04-24T06:07:54;4.63;;;2.35;;
33830;SDS011;20137;48.834;8.732;2023-04-24T06:10:20;2.90;;;2.17;;
33830;SDS011;20137;48.834;8.732;2023-04-24T06:12:46;2.97;;;2.03;;
33830;SDS011;20137;48.834;8.732;2023-04-24T06:15:12;3.35;;;2.03;;
33830;SDS011;20137;48.834;8.732;2023-04-24T06:17:37;4.18;;;2.63;;
33830;SDS011;20137;48.834;8.732;2023-04-24T06:20:03;7.18;;;3.00;;
33830;SDS011;20137;48.834;8.732;2023-04-24T06:22:31;5.60;;;2.50;;
33830;SDS011;20137;48.834;8.732;2023-04-24T06:24:56;3.33;;;2.42;;
33830;SDS011;20137;48.834;8.732;2023-04-24T06:27:22;4.68;;;2.45;;
33830;SDS011;20137;48.834;8.732;2023-04-24T06:29:48;5.18;;;2.10;;
33830;SDS011;20137;48.834;8.732;2023-04-24T06:32:20;3.47;;;2.20;;
33830;SDS011;20137;48.834;8.732;2023-04-24T06:34:50;5.45;;;2.58;;
33830;SDS011;20137;48.834;8.732;2023-04-24T06:37:16;3.10;;;2.40;;
33830;SDS011;20137;48.834;8.732;2023-04-24T06:39:43;3.88;;;2.35;;
33830;SDS011;20137;48.834;8.732;2023-04-24T06:42:09;3.72;;;2.33;;
33830;SDS011;20137;48.834;8.732;2023-04-24T06:44:35;4.75;;;2.38;;
33830;SDS011;20137;48.834;8.732;2023-04-24T06:47:05;2.92;;;2.20;;
33830;SDS011;20137;48.834;8.732;2023-04-24T06:49:37;4.22;;;2.42;;
33830;SDS011;20137;48.834;8.732;2023-04-24T06:52:03;5.65;;;2.50;;
33830;SDS011;20137;48.834;8.732;2023-04-24T06:54:30;3.42;;;2.35;;
33830;SDS011;20137;48.834;8.732;2023-04-24T06:56:56;3.15;;;2.33;;
33830;SDS011;20137;48.834;8.732;2023-04-24T06:59:22;5.50;;;2.33;;
33830;SDS011;20137;48.834;8.732;2023-04-24T07:01:49;3.85;;;2.25;;
33830;SDS011;20137;48.834;8.732;2023-04-24T07:04:16;3.05;;;2.30;;
33830;SDS011;20137;48.834;8.732;2023-04-24T07:06:42;3.65;;;2.30;;
33830;SDS011;20137;48.834;8.732;2023-04-24T07:09:08;3.10;;;2.15;;
33830;SDS011;20137;48.834;8.732;2023-04-24T07:11:34;4.00;;;2.50;;
33830;SDS011;20137;48.834;8.732;2023-04-24T07:14:00;4.25;;;2.22;;
33830;SDS011;20137;48.834;8.732;2023-04-24T07:16:26;4.85;;;2.45;;
33830;SDS011;20137;48.834;8.732;2023-04-24T07:18:52;3.97;;;2.17;;
33830;SDS011;20137;48.834;8.732;2023-04-24T07:21:17;5.95;;;1.95;;
33830;SDS011;20137;48.834;8.732;2023-04-24T07:23:43;3.08;;;1.80;;
33830;SDS011;20137;48.834;8.732;2023-04-24T07:26:09;3.17;;;1.95;;
33830;SDS011;20137;48.834;8.732;2023-04-24T07:28:35;3.50;;;2.10;;
33830;SDS011;20137;48.834;8.732;2023-04-24T07:31:00;4.38;;;2.00;;
33830;SDS011;20137;48.834;8.732;2023-04-24T07:33:26;2.55;;;1.95;;
33830;SDS011;20137;48.834;8.732;2023-04-24T07:35:52;4.80;;;2.40;;
33830;SDS011;20137;48.834;8.732;2023-04-24T07:38:18;6.03;;;2.10;;
33830;SDS011;20137;48.834;8.732;2023-04-24T07:40:47;5.85;;;2.15;;
33830;SDS011;20137;48.834;8.732;2023-04-24T07:43:13;4.03;;;1.75;;
33830;SDS011;20137;48.834;8.732;2023-04-24T07:45:39;5.75;;;2.40;;
33830;SDS011;20137;48.834;8.732;2023-04-24T07:48:05;3.67;;;2.22;;
33830;SDS011;20137;48.834;8.732;2023-04-24T07:50:31;3.78;;;2.00;;
33830;SDS011;20137;48.834;8.732;2023-04-24T07:52:57;6.10;;;2.50;;
33830;SDS011;20137;48.834;8.732;2023-04-24T07:55:22;7.00;;;2.60;;
33830;SDS011;20137;48.834;8.732;2023-04-24T07:57:48;5.22;;;2.10;;
33830;SDS011;20137;48.834;8.732;2023-04-24T08:00:14;5.63;;;2.22;;
33830;SDS011;20137;48.834;8.732;2023-04-24T08:02:40;5.55;;;2.00;;
33830;SDS011;20137;48.834;8.732;2023-04-24T08:05:06;8.30;;;2.28;;
33830;SDS011;20137;48.834;8.732;2023-04-24T08:07:32;4.15;;;2.00;;
33830;SDS011;20137;48.834;8.732;2023-04-24T08:09:58;2.85;;;1.67;;
33830;SDS011;20137;48.834;8.732;2023-04-24T08:12:24;4.10;;;1.60;;
33830;SDS011;20137;48.834;8.732;2023-04-24T08:14:50;5.10;;;2.10;;
33830;SDS011;20137;48.834;8.732;2023-04-24T08:17:16;3.85;;;2.00;;
33830;SDS011;20137;48.834;8.732;2023-04-24T08:19:42;4.35;;;1.67;;
33830;SDS011;20137;48.834;8.732;2023-04-24T08:22:12;3.25;;;1.48;;
33830;SDS011;20137;48.834;8.732;2023-04-24T08:24:38;2.97;;;1.48;;
33830;SDS011;20137;48.834;8.732;2023-04-24T08:27:04;3.25;;;1.52;;
33830;SDS011;20137;48.834;8.732;2023-04-24T08:29:30;2.97;;;1.55;;
33830;SDS011;20137;48.834;8.732;2023-04-24T08:31:55;5.00;;;1.67;;
33830;SDS011;20137;48.834;8.732;2023-04-24T08:34:21;2.38;;;1.52;;
33830;SDS011;20137;48.834;8.732;2023-04-24T08:36:47;4.20;;;1.42;;
33830;SDS011;20137;48.834;8.732;2023-04-24T08:39:13;3.63;;;1.65;;
33830;SDS011;20137;48.834;8.732;2023-04-24T08:41:41;2.83;;;1.30;;
33830;SDS011;20137;48.834;8.732;2023-04-24T08:44:10;1.95;;;0.95;;
33830;SDS011;20137;48.834;8.732;2023-04-24T08:46:37;1.85;;;1.02;;
33830;SDS011;20137;48.834;8.732;2023-04-24T08:49:05;3.00;;;1.00;;
33830;SDS011;20137;48.834;8.732;2023-04-24T08:51:31;2.20;;;1.05;;
33830;SDS011;20137;48.834;8.732;2023-04-24T08:53:57;1.35;;;1.17;;
33830;SDS011;20137;48.834;8.732;2023-04-24T08:56:23;5.07;;;1.48;;
33830;SDS011;20137;48.834;8.732;2023-04-24T08:58:50;3.28;;;1.20;;
33830;SDS011;20137;48.834;8.732;2023-04-24T09:01:18;4.10;;;1.20;;
33830;SDS011;20137;48.834;8.732;2023-04-24T09:03:45;1.45;;;1.17;;
33830;SDS011;20137;48.834;8.732;2023-04-24T09:06:15;5.97;;;1.50;;
33830;SDS011;20137;48.834;8.732;2023-04-24T09:08:44;2.75;;;1.45;;
33830;SDS011;20137;48.834;8.732;2023-04-24T09:11:10;2.83;;;1.75;;
33830;SDS011;20137;48.834;8.732;2023-04-24T09:13:36;3.05;;;2.03;;
33830;SDS011;20137;48.834;8.732;2023-04-24T09:16:03;5.60;;;2.05;;
33830;SDS011;20137;48.834;8.732;2023-04-24T09:18:28;5.53;;;2.00;;
33830;SDS011;20137;48.834;8.732;2023-04-24T09:21:01;4.47;;;1.75;;
33830;SDS011;20137;48.834;8.732;2023-04-24T09:23:29;3.85;;;1.45;;
33830;SDS011;20137;48.834;8.732;2023-04-24T09:25:57;3.58;;;1.75;;
33830;SDS011;20137;48.834;8.732;2023-04-24T09:28:32;2.30;;;1.75;;
33830;SDS011;20137;48.834;8.732;2023-04-24T09:31:13;4.28;;;1.88;;
33830;SDS011;20137;48.834;8.732;2023-04-24T09:34:04;2.90;;;2.00;;
33830;SDS011;20137;48.834;8.732;2023-04-24T09:36:32;3.15;;;1.60;;
33830;SDS011;20137;48.834;8.732;2023-04-24T09:39:02;3.47;;;1.70;;
33830;SDS011;20137;48.834;8.732;2023-04-24T09:41:31;3.67;;;1.77;;
33830;SDS011;20137;48.834;8.732;2023-04-24T09:43:58;3.40;;;1.80;;
33830;SDS011;20137;48.834;8.732;2023-04-24T09:46:51;4.80;;;1.70;;
33830;SDS011;20137;48.834;8.732;2023-04-24T09:51:49;4.40;;;1.98;;
33830;SDS011;20137;48.834;8.732;2023-04-24T09:54:16;2.15;;;1.40;;
33830;SDS011;20137;48.834;8.732;2023-04-24T09:56:48;6.32;;;1.98;;
33830;SDS011;20137;48.834;8.732;2023-04-24T09:59:15;2.15;;;1.63;;
33830;SDS011;20137;48.834;8.732;2023-04-24T10:01:45;3.60;;;1.88;;
33830;SDS011;20137;48.834;8.732;2023-04-24T10:04:21;1.70;;;1.50;;
33830;SDS011;20137;48.834;8.732;2023-04-24T10:06:49;3.40;;;1.58;;
33830;SDS011;20137;48.834;8.732;2023-04-24T10:09:20;4.28;;;1.70;;
33830;SDS011;20137;48.834;8.732;2023-04-24T10:11:52;3.83;;;1.80;;
33830;SDS011;20137;48.834;8.732;2023-04-24T10:14:19;3.35;;;1.50;;
33830;SDS011;20137;48.834;8.732;2023-04-24T10:16:49;2.42;;;1.70;;
33830;SDS011;20137;48.834;8.732;2023-04-24T10:19:17;5.47;;;1.70;;
33830;SDS011;20137;48.834;8.732;2023-04-24T10:21:44;5.38;;;1.70;;
33830;SDS011;20137;48.834;8.732;2023-04-24T10:24:15;4.90;;;1.70;;
33830;SDS011;20137;48.834;8.732;2023-04-24T10:26:45;6.00;;;1.90;;
33830;SDS011;20137;48.834;8.732;2023-04-24T10:29:14;3.17;;;1.63;;
33830;SDS011;20137;48.834;8.732;2023-04-24T10:31:41;1.77;;;1.40;;
33830;SDS011;20137;48.834;8.732;2023-04-24T10:34:10;2.30;;;1.58;;
33830;SDS011;20137;48.834;8.732;2023-04-24T10:36:37;2.53;;;1.50;;
33830;SDS011;20137;48.834;8.732;2023-04-24T10:39:06;5.20;;;1.55;;
33830;SDS011;20137;48.834;8.732;2023-04-24T10:41:37;4.28;;;1.38;;
33830;SDS011;20137;48.834;8.732;2023-04-24T10:46:35;2.60;;;2.00;;
33830;SDS011;20137;48.834;8.732;2023-04-24T10:49:05;4.32;;;2.00;;
33830;SDS011;20137;48.834;8.732;2023-04-24T10:51:49;3.05;;;1.60;;
33830;SDS011;20137;48.834;8.732;2023-04-24T10:54:27;2.55;;;2.10;;
33830;SDS011;20137;48.834;8.732;2023-04-24T10:59:45;2.60;;;1.80;;
33830;SDS011;20137;48.834;8.732;2023-04-24T11:02:15;2.50;;;1.70;;
33830;SDS011;20137;48.834;8.732;2023-04-24T11:04:41;2.45;;;1.50;;
33830;SDS011;20137;48.834;8.732;2023-04-24T11:07:11;6.82;;;2.00;;
33830;SDS011;20137;48.834;8.732;2023-04-24T11:09:37;4.97;;;2.28;;
33830;SDS011;20137;48.834;8.732;2023-04-24T11:12:06;4.10;;;1.85;;
33830;SDS011;20137;48.834;8.732;2023-04-24T11:17:30;2.47;;;1.88;;
33830;SDS011;20137;48.834;8.732;2023-04-24T11:20:05;6.32;;;2.60;;
33830;SDS011;20137;48.834;8.732;2023-04-24T11:22:38;3.83;;;2.10;;
33830;SDS011;20137;48.834;8.732;2023-04-24T11:25:08;3.08;;;2.05;;
33830;SDS011;20137;48.834;8.732;2023-04-24T11:27:43;3.03;;;1.73;;
33830;SDS011;20137;48.834;8.732;2023-04-24T11:30:11;5.65;;;2.45;;
33830;SDS011;20137;48.834;8.732;2023-04-24T11:32:37;5.50;;;2.42;;
33830;SDS011;20137;48.834;8.732;2023-04-24T11:35:08;3.03;;;2.10;;
33830;SDS011;20137;48.834;8.732;2023-04-24T11:37:42;2.70;;;2.00;;
33830;SDS011;20137;48.834;8.732;2023-04-24T11:40:12;3.03;;;1.83;;
33830;SDS011;20137;48.834;8.732;2023-04-24T11:42:51;4.53;;;2.28;;
33830;SDS011;20137;48.834;8.732;2023-04-24T11:45:21;3.00;;;1.90;;
33830;SDS011;20137;48.834;8.732;2023-04-24T11:47:49;2.03;;;1.70;;
33830;SDS011;20137;48.834;8.732;2023-04-24T11:50:15;4.65;;;1.63;;
33830;SDS011;20137;48.834;8.732;2023-04-24T11:52:43;2.35;;;1.35;;
33830;SDS011;20137;48.834;8.732;2023-04-24T11:57:45;4.88;;;1.88;;
33830;SDS011;20137;48.834;8.732;2023-04-24T12:02:43;6.55;;;2.08;;
33830;SDS011;20137;48.834;8.732;2023-04-24T12:05:12;3.38;;;1.83;;
33830;SDS011;20137;48.834;8.732;2023-04-24T12:07:50;1.95;;;1.73;;
33830;SDS011;20137;48.834;8.732;2023-04-24T12:10:23;4.85;;;1.80;;
33830;SDS011;20137;48.834;8.732;2023-04-24T12:12:51;5.45;;;2.05;;
33830;SDS011;20137;48.834;8.732;2023-04-24T12:15:17;3.60;;;2.17;;
33830;SDS011;20137;48.834;8.732;2023-04-24T12:17:45;2.42;;;2.05;;
33830;SDS011;20137;48.834;8.732;2023-04-24T12:20:11;4.07;;;1.92;;
33830;SDS011;20137;48.834;8.732;2023-04-24T12:25:12;3.42;;;1.52;;
33830;SDS011;20137;48.834;8.732;2023-04-24T12:27:43;3.25;;;1.65;;
33830;SDS011;20137;48.834;8.732;2023-04-24T12:30:11;2.47;;;1.60;;
33830;SDS011;20137;48.834;8.732;2023-04-24T12:32:48;5.78;;;2.33;;
33830;SDS011;20137;48.834;8.732;2023-04-24T12:35:21;5.40;;;2.83;;
33830;SDS011;20137;48.834;8.732;2023-04-24T12:37:48;6.13;;;3.25;;
33830;SDS011;20137;48.834;8.732;2023-04-24T12:40:15;4.18;;;2.95;;
33830;SDS011;20137;48.834;8.732;2023-04-24T12:42:42;3.95;;;3.08;;
33830;SDS011;20137;48.834;8.732;2023-04-24T12:45:11;4.32;;;3.00;;
33830;SDS011;20137;48.834;8.732;2023-04-24T12:47:38;10.75;;;3.47;;
33830;SDS011;20137;48.834;8.732;2023-04-24T12:50:05;5.22;;;2.90;;
33830;SDS011;20137;48.834;8.732;2023-04-24T12:52:32;9.55;;;3.42;;
33830;SDS011;20137;48.834;8.732;2023-04-24T12:54:59;5.03;;;3.22;;
33830;SDS011;20137;48.834;8.732;2023-04-24T12:57:25;8.32;;;3.42;;
33830;SDS011;20137;48.834;8.732;2023-04-24T12:59:54;4.85;;;3.15;;
33830;SDS011;20137;48.834;8.732;2023-04-24T13:02:24;7.53;;;3.85;;
33830;SDS011;20137;48.834;8.732;2023-04-24T13:04:51;6.38;;;3.50;;
33830;SDS011;20137;48.834;8.732;2023-04-24T13:07:17;3.92;;;2.97;;
33830;SDS011;20137;48.834;8.732;2023-04-24T13:09:43;4.40;;;2.70;;
33830;SDS011;20137;48.834;8.732;2023-04-24T13:12:10;6.57;;;3.22;;
33830;SDS011;20137;48.834;8.732;2023-04-24T13:14:36;5.90;;;3.20;;
33830;SDS011;20137;48.834;8.732;2023-04-24T13:17:02;7.15;;;2.88;;
33830;SDS011;20137;48.834;8.732;2023-04-24T13:19:28;7.60;;;3.05;;
33830;SDS011;20137;48.834;8.732;2023-04-24T13:21:54;3.42;;;2.63;;
33830;SDS011;20137;48.834;8.732;2023-04-24T13:24:22;3.72;;;2.65;;
33830;SDS011;20137;48.834;8.732;2023-04-24T13:26:51;5.40;;;3.00;;
33830;SDS011;20137;48.834;8.732;2023-04-24T13:29:17;4.35;;;3.00;;
33830;SDS011;20137;48.834;8.732;2023-04-24T13:31:43;5.80;;;3.25;;
33830;SDS011;20137;48.834;8.732;2023-04-24T13:34:09;3.95;;;3.28;;
33830;SDS011;20137;48.834;8.732;2023-04-24T13:36:35;4.85;;;2.88;;
33830;SDS011;20137;48.834;8.732;2023-04-24T13:39:01;4.28;;;2.80;;
33830;SDS011;20137;48.834;8.732;2023-04-24T13:41:29;4.35;;;2.83;;
33830;SDS011;20137;48.834;8.732;2023-04-24T13:43:55;5.47;;;3.10;;
33830;SDS011;20137;48.834;8.732;2023-04-24T13:46:21;3.65;;;2.65;;
33830;SDS011;20137;48.834;8.732;2023-04-24T13:48:47;4.35;;;2.60;;
33830;SDS011;20137;48.834;8.732;2023-04-24T13:51:12;4.13;;;2.90;;
33830;SDS011;20137;48.834;8.732;2023-04-24T13:53:38;3.33;;;2.60;;
33830;SDS011;20137;48.834;8.732;2023-04-24T13:56:04;7.38;;;3.17;;
33830;SDS011;20137;48.834;8.732;2023-04-24T13:58:34;4.07;;;2.67;;
33830;SDS011;20137;48.834;8.732;2023-04-24T14:01:01;4.97;;;2.95;;
33830;SDS011;20137;48.834;8.732;2023-04-24T14:03:28;5.47;;;2.70;;
33830;SDS011;20137;48.834;8.732;2023-04-24T14:05:54;4.78;;;2.63;;
33830;SDS011;20137;48.834;8.732;2023-04-24T14:08:19;5.55;;;3.45;;
33830;SDS011;20137;48.834;8.732;2023-04-24T14:10:45;6.68;;;3.67;;
33830;SDS011;20137;48.834;8.732;2023-04-24T14:13:11;4.80;;;2.75;;
33830;SDS011;20137;48.834;8.732;2023-04-24T14:15:37;5.60;;;2.80;;
33830;SDS011;20137;48.834;8.732;2023-04-24T14:18:03;5.82;;;2.60;;
33830;SDS011;20137;48.834;8.732;2023-04-24T14:20:29;4.25;;;2.45;;
33830;SDS011;20137;48.834;8.732;2023-04-24T14:22:54;4.85;;;2.45;;
33830;SDS011;20137;48.834;8.732;2023-04-24T14:25:20;7.32;;;3.35;;
33830;SDS011;20137;48.834;8.732;2023-04-24T14:27:47;4.72;;;2.63;;
33830;SDS011;20137;48.834;8.732;2023-04-24T14:30:13;3.90;;;2.80;;
33830;SDS011;20137;48.834;8.732;2023-04-24T14:32:40;4.28;;;3.10;;
33830;SDS011;20137;48.834;8.732;2023-04-24T14:35:06;4.15;;;2.50;;
33830;SDS011;20137;48.834;8.732;2023-04-24T14:37:32;4.82;;;2.88;;
33830;SDS011;20137;48.834;8.732;2023-04-24T14:39:58;4.22;;;2.90;;
33830;SDS011;20137;48.834;8.732;2023-04-24T14:42:24;4.30;;;2.65;;
33830;SDS011;20137;48.834;8.732;2023-04-24T14:44:50;4.43;;;2.58;;
33830;SDS011;20137;48.834;8.732;2023-04-24T14:47:16;3.30;;;2.90;;
33830;SDS011;20137;48.834;8.732;2023-04-24T14:49:46;6.13;;;3.20;;
33830;SDS011;20137;48.834;8.732;2023-04-24T14:52:12;4.75;;;2.92;;
33830;SDS011;20137;48.834;8.732;2023-04-24T14:54:38;6.03;;;2.58;;
33830;SDS011;20137;48.834;8.732;2023-04-24T14:57:04;4.55;;;2.38;;
33830;SDS011;20137;48.834;8.732;2023-04-24T14:59:30;3.42;;;2.33;;
33830;SDS011;20137;48.834;8.732;2023-04-24T15:01:56;3.78;;;2.70;;
33830;SDS011;20137;48.834;8.732;2023-04-24T15:04:26;4.40;;;2.33;;